createdAt,value
2023-02-14T00:01:12.785Z,87.18
2023-02-14T00:03:40.271Z,88.03
2023-02-14T00:06:09.501Z,88.14
2023-02-14T00:08:36.916Z,88.21
2023-02-14T00:11:05.455Z,87.67
2023-02-14T00:13:32.451Z,88.07
2023-02-14T00:15:59.337Z,88.18
2023-02-14T00:18:49.185Z,87.86
2023-02-14T00:21:16.137Z,88.02
2023-02-14T00:23:43.486Z,88.21
2023-02-14T00:26:15.172Z,88.24
2023-02-14T00:28:43.533Z,87.53
2023-02-14T00:31:10.634Z,88.70
2023-02-14T00:33:37.897Z,88.46
2023-02-14T00:36:07.077Z,88.45
2023-02-14T00:38:34.886Z,88.16
2023-02-14T00:41:02.450Z,88.79
2023-02-14T00:43:29.628Z,89.69
2023-02-14T00:45:57.496Z,89.04
2023-02-14T00:48:24.588Z,88.69
2023-02-14T00:50:51.512Z,89.51
2023-02-14T00:53:18.362Z,89.58
2023-02-14T00:55:47.070Z,89.55
2023-02-14T00:58:15.089Z,89.87
2023-02-14T01:00:41.994Z,90.25
2023-02-14T01:03:08.993Z,89.53
2023-02-14T01:05:35.982Z,90.91
2023-02-14T01:08:04.740Z,89.95
2023-02-14T01:10:31.879Z,90.52
2023-02-14T01:12:58.996Z,89.97
2023-02-14T01:15:27.676Z,89.52
2023-02-14T01:17:54.536Z,89.37
2023-02-14T01:20:22.131Z,89.53
2023-02-14T01:22:49.025Z,89.37
2023-02-14T01:25:16.343Z,89.71
2023-02-14T01:27:43.278Z,89.34
2023-02-14T01:30:11.262Z,89.10
2023-02-14T01:32:38.106Z,88.77
2023-02-14T01:35:05.285Z,88.83
2023-02-14T01:37:32.215Z,88.63
2023-02-14T01:39:59.448Z,88.33
2023-02-14T01:42:27.568Z,88.14
2023-02-14T01:44:59.796Z,88.07
2023-02-14T01:47:28.964Z,88.25
2023-02-14T01:50:00.213Z,87.74
2023-02-14T01:52:34.946Z,87.91
2023-02-14T01:55:08.535Z,88.05
2023-02-14T01:57:46.455Z,88.31
2023-02-14T02:00:32.827Z,88.14
2023-02-14T02:03:01.211Z,88.13
2023-02-14T02:05:28.177Z,88.35
2023-02-14T02:07:59.117Z,87.67
2023-02-14T02:10:28.156Z,87.59
2023-02-14T02:13:00.010Z,87.71
2023-02-14T02:15:31.292Z,87.42
2023-02-14T02:18:19.837Z,86.89
2023-02-14T02:21:16.730Z,87.66
2023-02-14T02:23:54.729Z,86.81
2023-02-14T02:26:49.484Z,86.87
2023-02-14T02:29:53.937Z,87.09
2023-02-14T02:32:48.803Z,87.60
2023-02-14T02:35:21.611Z,87.35
2023-02-14T02:38:07.353Z,88.13
2023-02-14T02:40:46.566Z,87.84
2023-02-14T02:43:49.548Z,87.93
2023-02-14T02:46:42.960Z,88.00
2023-02-14T02:49:47.375Z,88.23
2023-02-14T02:52:46.864Z,88.42
2023-02-14T02:55:21.546Z,88.62
2023-02-14T02:57:51.571Z,89.24
2023-02-14T03:00:21.604Z,89.45
2023-02-14T03:03:11.386Z,89.07
2023-02-14T03:05:38.701Z,88.98
2023-02-14T03:08:06.117Z,90.08
2023-02-14T03:10:38.192Z,89.21
2023-02-14T03:28:20.009Z,93.63
2023-02-14T03:31:11.481Z,92.57
2023-02-14T03:34:07.111Z,92.23
2023-02-14T03:36:38.279Z,91.81
2023-02-14T03:39:16.374Z,91.87
2023-02-14T03:41:53.546Z,92.19
2023-02-14T03:44:25.937Z,91.63
2023-02-14T03:46:58.779Z,91.83
2023-02-14T03:49:31.114Z,92.06
2023-02-14T03:52:01.155Z,92.38
2023-02-14T03:54:30.509Z,92.65
2023-02-14T03:57:20.847Z,92.54
2023-02-14T03:59:48.861Z,92.83
2023-02-14T04:02:30.337Z,92.95
2023-02-14T04:08:08.671Z,93.76
2023-02-14T04:10:35.860Z,93.25
2023-02-14T04:13:02.823Z,93.49
2023-02-14T04:15:29.901Z,93.05
2023-02-14T04:18:15.459Z,92.58
2023-02-14T04:20:42.336Z,93.18
2023-02-14T04:23:09.237Z,92.76
2023-02-14T04:25:36.195Z,92.22
2023-02-14T04:28:02.977Z,92.52
2023-02-14T04:30:29.824Z,92.77
2023-02-14T04:32:57.012Z,92.55
2023-02-14T04:35:23.885Z,92.72
2023-02-14T04:37:50.765Z,92.43
2023-02-14T04:40:17.670Z,92.59
2023-02-14T04:42:45.762Z,92.17
2023-02-14T04:45:13.424Z,91.40
2023-02-14T04:47:40.476Z,92.07
2023-02-14T04:50:07.929Z,92.33
2023-02-14T04:52:34.802Z,92.62
2023-02-14T04:55:01.915Z,92.40
2023-02-14T04:57:29.554Z,91.98
2023-02-14T04:59:56.434Z,92.39
2023-02-14T05:02:23.552Z,91.86
2023-02-14T05:04:50.717Z,91.46
2023-02-14T05:07:17.812Z,91.64
2023-02-14T05:09:44.716Z,91.28
2023-02-14T05:12:11.651Z,90.96
2023-02-14T05:14:38.552Z,90.80
2023-02-14T05:17:05.406Z,90.67
2023-02-14T05:19:32.497Z,91.01
2023-02-14T05:21:59.411Z,89.87
2023-02-14T05:24:26.399Z,89.57
2023-02-14T05:26:53.196Z,88.92
2023-02-14T05:29:20.146Z,88.06
2023-02-14T05:31:47.184Z,88.28
2023-02-14T05:34:14.092Z,87.01
2023-02-14T05:36:40.951Z,86.60
2023-02-14T05:39:07.789Z,85.77
2023-02-14T05:41:34.702Z,84.16
2023-02-14T05:44:02.014Z,84.38
2023-02-14T05:46:28.990Z,83.65
2023-02-14T05:48:55.835Z,81.79
2023-02-14T05:51:22.678Z,81.75
2023-02-14T05:53:49.592Z,80.57
2023-02-14T05:56:16.543Z,79.20
2023-02-14T05:58:44.114Z,78.84
2023-02-14T06:01:11.107Z,75.36
2023-02-14T06:03:38.049Z,74.63
2023-02-14T06:06:05.153Z,73.02
2023-02-14T06:08:32.095Z,69.52
2023-02-14T06:10:59.283Z,71.22
2023-02-14T06:13:26.286Z,71.26
2023-02-14T06:15:53.126Z,66.88
2023-02-14T06:18:20.054Z,68.80
2023-02-14T06:20:46.826Z,69.48
2023-02-14T06:23:13.780Z,61.76
2023-02-14T06:25:40.632Z,63.88
2023-02-14T06:28:07.522Z,70.91
2023-02-14T06:30:34.520Z,67.98
2023-02-14T06:33:01.555Z,66.05
2023-02-14T06:35:28.571Z,70.52
2023-02-14T06:37:55.459Z,68.90
2023-02-14T06:40:22.455Z,66.32
2023-02-14T06:42:49.362Z,70.69
2023-02-14T06:45:16.507Z,69.68
2023-02-14T06:47:43.331Z,65.62
2023-02-14T06:50:11.827Z,66.54
2023-02-14T06:52:44.741Z,67.71
2023-02-14T06:55:13.937Z,63.96
2023-02-14T06:57:40.865Z,62.83
2023-02-14T07:00:08.816Z,66.17
2023-02-14T07:02:35.781Z,62.95
2023-02-14T07:05:02.748Z,60.12
2023-02-14T07:07:29.591Z,62.07
2023-02-14T07:09:56.483Z,63.08
2023-02-14T07:12:23.362Z,60.57
2023-02-14T07:14:50.310Z,56.17
2023-02-14T07:17:17.184Z,59.02
2023-02-14T07:19:44.011Z,57.93
2023-02-14T07:22:11.011Z,58.33
2023-02-14T07:24:37.865Z,59.49
2023-02-14T07:27:04.749Z,64.97
2023-02-14T07:29:31.608Z,64.44
2023-02-14T07:31:58.689Z,60.20
2023-02-14T07:34:27.270Z,60.28
2023-02-14T07:36:54.195Z,57.32
2023-02-14T07:39:21.076Z,52.95
2023-02-14T07:41:50.843Z,49.71
2023-02-14T07:44:20.358Z,48.86
2023-02-14T07:46:47.285Z,49.62
2023-02-14T07:49:14.357Z,45.69
2023-02-14T07:51:41.442Z,46.98
2023-02-14T07:54:08.300Z,45.22
2023-02-14T07:56:35.383Z,46.79
2023-02-14T07:59:02.285Z,45.21
2023-02-14T08:01:29.201Z,51.00
2023-02-14T08:03:56.128Z,50.66
2023-02-14T08:06:22.981Z,46.36
2023-02-14T08:08:49.899Z,45.08
2023-02-14T08:11:36.687Z,44.54
2023-02-14T08:14:04.927Z,40.89
2023-02-14T08:16:34.394Z,38.10
2023-02-14T08:19:02.117Z,36.72
2023-02-14T08:21:29.212Z,36.60
2023-02-14T08:23:57.057Z,36.46
2023-02-14T08:26:24.062Z,35.26
2023-02-14T08:28:51.168Z,36.78
2023-02-14T08:31:36.442Z,36.11
2023-02-14T08:34:05.613Z,38.78
2023-02-14T08:36:33.028Z,44.76
2023-02-14T08:38:59.965Z,40.84
2023-02-14T08:41:26.779Z,38.87
2023-02-14T08:43:53.608Z,37.18
2023-02-14T08:46:20.567Z,35.88
2023-02-14T08:48:47.633Z,35.16
2023-02-14T08:51:15.152Z,35.82
2023-02-14T08:53:43.201Z,34.80
2023-02-14T08:56:13.662Z,36.14
2023-02-14T08:58:41.021Z,42.37
2023-02-14T09:01:14.066Z,38.57
2023-02-14T09:03:42.111Z,37.43
2023-02-14T09:06:12.420Z,34.76
2023-02-14T09:08:39.672Z,33.99
2023-02-14T09:11:22.355Z,31.68
2023-02-14T09:13:51.423Z,31.98
2023-02-14T09:16:19.366Z,35.41
2023-02-14T09:18:47.609Z,32.63
2023-02-14T09:21:17.474Z,30.14
2023-02-14T09:23:44.790Z,28.87
2023-02-14T09:26:14.130Z,29.22
2023-02-14T09:28:41.481Z,34.35
2023-02-14T09:31:11.376Z,34.33
2023-02-14T09:33:57.014Z,31.03
2023-02-14T09:36:42.606Z,27.30
2023-02-14T09:39:10.509Z,28.55
2023-02-14T09:41:40.093Z,30.80
2023-02-14T09:44:40.056Z,32.53
2023-02-14T09:47:18.946Z,30.04
2023-02-14T09:49:49.936Z,27.94
2023-02-14T09:52:20.126Z,28.25
2023-02-14T09:54:53.366Z,30.39
2023-02-14T09:57:22.997Z,33.08
2023-02-14T10:00:00.424Z,28.57
2023-02-14T10:02:30.415Z,26.44
2023-02-14T10:05:11.591Z,26.64
2023-02-14T10:08:16.897Z,29.79
2023-02-14T10:10:48.425Z,33.59
2023-02-14T10:13:38.235Z,28.15
2023-02-14T10:16:26.654Z,24.42
2023-02-14T10:19:01.659Z,26.83
2023-02-14T10:21:51.703Z,29.88
2023-02-14T10:24:30.069Z,28.47
2023-02-14T10:29:44.850Z,22.97
2023-02-14T10:32:15.411Z,22.71
2023-02-14T10:34:51.631Z,29.18
2023-02-14T10:37:33.086Z,26.77
2023-02-14T10:40:34.050Z,22.79
2023-02-14T10:43:48.026Z,22.43
2023-02-14T10:46:18.295Z,28.37
2023-02-14T10:49:01.056Z,27.07
2023-02-14T10:51:44.971Z,25.21
2023-02-14T10:54:22.644Z,24.83
2023-02-14T10:56:59.258Z,25.31
2023-02-14T11:00:28.058Z,28.14
2023-02-14T11:02:58.236Z,25.03
2023-02-14T11:05:34.446Z,23.82
2023-02-14T11:08:02.081Z,23.28
2023-02-14T11:10:34.235Z,29.64
2023-02-14T11:13:01.198Z,28.77
2023-02-14T11:15:35.733Z,30.89
2023-02-14T11:18:23.114Z,29.65
2023-02-14T11:21:04.356Z,27.91
2023-02-14T11:23:37.722Z,32.39
2023-02-14T11:26:10.434Z,28.91
2023-02-14T11:28:50.447Z,27.25
2023-02-14T11:31:26.880Z,24.96
2023-02-14T11:33:54.520Z,27.78
2023-02-14T11:36:21.823Z,27.94
2023-02-14T11:38:58.443Z,27.61
2023-02-14T11:41:26.111Z,25.51
2023-02-14T11:44:09.560Z,23.71
2023-02-14T11:46:51.072Z,28.58
2023-02-14T11:49:34.202Z,28.89
2023-02-14T11:52:16.351Z,27.47
2023-02-14T11:54:45.062Z,24.25
2023-02-14T11:57:27.909Z,26.61
2023-02-14T11:59:59.869Z,30.44
2023-02-14T12:02:32.937Z,25.87
2023-02-14T12:05:22.163Z,25.92
2023-02-14T12:07:52.457Z,24.61
2023-02-14T12:10:23.332Z,28.82
2023-02-14T12:12:56.730Z,28.16
2023-02-14T12:15:37.651Z,27.27
2023-02-14T12:18:26.141Z,27.11
2023-02-14T12:21:21.547Z,28.86
2023-02-14T12:24:00.470Z,34.18
2023-02-14T12:26:36.360Z,35.99
2023-02-14T12:29:09.279Z,36.36
2023-02-14T12:31:36.226Z,37.31
2023-02-14T12:34:04.571Z,38.55
2023-02-14T12:36:58.036Z,38.76
2023-02-14T12:39:24.837Z,38.16
2023-02-14T12:42:11.786Z,38.72
2023-02-14T12:45:03.116Z,40.61
2023-02-14T12:47:33.130Z,41.07
2023-02-14T12:50:23.636Z,40.62
2023-02-14T12:52:56.708Z,41.02
2023-02-14T12:55:55.812Z,42.38
2023-02-14T12:58:29.006Z,43.31
2023-02-14T13:01:29.087Z,42.88
2023-02-14T13:04:30.623Z,42.35
2023-02-14T13:07:22.412Z,43.41
2023-02-14T13:10:05.912Z,45.06
2023-02-14T13:12:44.842Z,43.17
2023-02-14T13:15:33.662Z,42.34
2023-02-14T13:18:07.534Z,43.55
2023-02-14T13:20:44.756Z,45.29
2023-02-14T13:23:28.737Z,44.93
2023-02-14T13:26:03.860Z,44.28
2023-02-14T13:28:31.695Z,45.15
2023-02-14T13:31:00.942Z,45.56
2023-02-14T13:33:38.150Z,45.57
2023-02-14T13:36:12.366Z,44.74
2023-02-14T13:38:45.935Z,44.51
2023-02-14T13:41:15.602Z,45.72
2023-02-14T13:43:51.121Z,45.52
2023-02-14T13:46:30.515Z,45.35
2023-02-14T13:49:04.543Z,43.95
2023-02-14T13:51:53.578Z,43.63
2023-02-14T13:54:40.856Z,43.36
2023-02-14T13:57:31.717Z,42.24
2023-02-14T14:00:17.449Z,42.84
2023-02-14T14:02:56.185Z,43.73
2023-02-14T14:05:42.818Z,44.10
2023-02-14T14:08:25.142Z,43.94
2023-02-14T14:10:56.670Z,44.21
2023-02-14T14:13:42.247Z,46.13
2023-02-14T14:16:25.662Z,45.00
2023-02-14T14:19:00.282Z,44.98
2023-02-14T14:21:44.734Z,43.84
2023-02-14T14:24:26.262Z,44.90
2023-02-14T14:27:12.971Z,44.93
2023-02-14T14:30:04.083Z,45.36
2023-02-14T14:32:36.578Z,44.83
2023-02-14T14:35:16.872Z,46.66
2023-02-14T14:37:50.111Z,45.93
2023-02-14T14:40:25.120Z,47.33
2023-02-14T14:42:53.216Z,46.84
2023-02-14T14:45:26.457Z,47.84
2023-02-14T14:47:56.668Z,48.52
2023-02-14T14:50:29.786Z,48.79
2023-02-14T14:53:11.733Z,49.20
2023-02-14T14:55:44.835Z,49.12
2023-02-14T14:58:33.885Z,49.15
2023-02-14T15:01:00.981Z,49.45
2023-02-14T15:03:29.393Z,50.29
2023-02-14T15:06:22.896Z,51.63
2023-02-14T15:08:52.573Z,51.27
2023-02-14T15:11:47.742Z,50.45
2023-02-14T15:30:03.977Z,54.31
2023-02-14T15:32:34.605Z,54.26
2023-02-14T15:35:04.473Z,53.85
2023-02-14T15:37:31.816Z,53.98
2023-02-14T15:39:59.980Z,53.79
2023-02-14T15:42:33.763Z,52.98
2023-02-14T15:45:17.002Z,53.60
2023-02-14T15:47:47.686Z,53.87
2023-02-14T15:50:25.260Z,53.94
2023-02-14T15:53:02.904Z,53.93
2023-02-14T15:55:31.013Z,54.61
2023-02-14T15:58:07.445Z,54.30
2023-02-14T16:00:35.572Z,54.48
2023-02-14T16:03:07.451Z,54.74
2023-02-14T16:05:34.844Z,55.39
2023-02-14T16:08:08.133Z,55.50
2023-02-14T16:10:37.270Z,55.75
2023-02-14T16:13:09.359Z,55.70
2023-02-14T16:15:38.700Z,55.79
2023-02-14T16:18:33.715Z,55.88
2023-02-14T16:21:21.102Z,55.73
2023-02-14T16:24:08.105Z,55.90
2023-02-14T16:26:38.104Z,56.31
2023-02-14T16:29:06.932Z,55.48
2023-02-14T16:31:34.591Z,54.99
2023-02-14T16:34:01.983Z,55.98
2023-02-14T16:36:34.058Z,56.45
2023-02-14T16:39:05.715Z,55.35
2023-02-14T16:41:34.576Z,55.58
2023-02-14T16:44:01.594Z,56.23
2023-02-14T16:46:35.270Z,55.67
2023-02-14T16:49:02.319Z,55.44
2023-02-14T16:51:32.967Z,56.20
2023-02-14T16:54:04.129Z,55.44
2023-02-14T16:56:38.517Z,55.48
2023-02-14T16:59:05.295Z,55.12
2023-02-14T17:01:32.765Z,56.47
2023-02-14T17:04:00.302Z,57.05
2023-02-14T17:06:30.581Z,55.20
2023-02-14T17:09:00.567Z,56.13
2023-02-14T17:11:29.973Z,56.10
2023-02-14T17:13:57.097Z,55.90
2023-02-14T17:16:24.066Z,55.26
2023-02-14T17:18:52.105Z,56.44
2023-02-14T17:21:23.321Z,56.58
2023-02-14T17:23:50.270Z,56.16
2023-02-14T17:26:18.867Z,56.92
2023-02-14T17:28:46.671Z,57.75
2023-02-14T17:31:14.386Z,56.75
2023-02-14T17:33:41.406Z,56.89
2023-02-14T17:36:13.148Z,56.64
2023-02-14T17:38:43.529Z,56.70
2023-02-14T17:41:18.746Z,57.38
2023-02-14T17:43:46.275Z,57.61
2023-02-14T17:46:16.362Z,57.28
2023-02-14T17:48:46.250Z,56.99
2023-02-14T17:51:14.885Z,56.11
2023-02-14T17:53:42.394Z,55.91
2023-02-14T17:56:14.865Z,56.49
2023-02-14T17:58:41.840Z,57.30
2023-02-14T18:01:11.485Z,56.90
2023-02-14T18:03:39.183Z,57.00
2023-02-14T18:06:06.845Z,57.27
2023-02-14T18:08:39.592Z,57.70
2023-02-14T18:11:08.524Z,58.02
2023-02-14T18:13:35.794Z,57.31
2023-02-14T18:16:05.813Z,57.12
2023-02-14T18:18:32.888Z,57.58
2023-02-14T18:21:02.215Z,57.88
2023-02-14T18:23:31.288Z,58.98
2023-02-14T18:26:09.950Z,58.10
2023-02-14T18:28:37.103Z,58.65
2023-02-14T18:31:09.020Z,58.06
2023-02-14T18:33:36.858Z,59.52
2023-02-14T18:36:12.275Z,59.40
2023-02-14T18:38:40.403Z,58.48
2023-02-14T18:41:09.569Z,58.40
2023-02-14T18:43:36.936Z,58.56
2023-02-14T18:46:16.522Z,58.83
2023-02-14T18:48:44.073Z,59.07
2023-02-14T18:51:31.550Z,59.69
2023-02-14T18:53:59.954Z,59.88
2023-02-14T18:56:34.169Z,59.06
2023-02-14T18:59:04.148Z,60.82
2023-02-14T19:01:44.196Z,60.45
2023-02-14T19:04:13.361Z,59.70
2023-02-14T19:06:41.844Z,59.59
2023-02-14T19:09:11.348Z,60.38
2023-02-14T19:11:39.397Z,60.12
2023-02-14T19:14:10.141Z,59.77
2023-02-14T19:16:53.597Z,59.24
2023-02-14T19:19:20.513Z,60.12
2023-02-14T19:21:47.629Z,60.05
2023-02-14T19:24:18.538Z,60.29
2023-02-14T19:26:46.580Z,60.92
2023-02-14T19:29:15.858Z,61.87
2023-02-14T19:31:45.449Z,61.60
2023-02-14T19:34:29.929Z,61.31
2023-02-14T19:36:59.829Z,61.84
2023-02-14T19:39:31.300Z,62.41
2023-02-14T19:41:59.504Z,61.81
2023-02-14T19:44:28.806Z,61.58
2023-02-14T19:46:56.674Z,61.99
2023-02-14T19:49:23.835Z,62.35
2023-02-14T19:51:53.526Z,61.80
2023-02-14T19:54:25.675Z,62.12
2023-02-14T19:56:53.953Z,62.94
2023-02-14T19:59:22.747Z,62.86
2023-02-14T20:01:52.264Z,62.73
2023-02-14T20:04:23.162Z,62.89
2023-02-14T20:06:51.207Z,63.05
2023-02-14T20:09:19.311Z,63.32
2023-02-14T20:11:51.730Z,63.09
2023-02-14T20:14:20.033Z,63.43
2023-02-14T20:16:47.926Z,64.11
2023-02-14T20:19:17.652Z,64.45
2023-02-14T20:21:46.161Z,64.12
2023-02-14T20:24:16.438Z,64.58
2023-02-14T20:26:43.640Z,65.08
2023-02-14T20:29:11.259Z,65.05
2023-02-14T20:31:45.216Z,65.20
2023-02-14T20:34:13.324Z,65.04
2023-02-14T20:36:41.562Z,65.31
2023-02-14T20:39:10.701Z,65.29
2023-02-14T20:41:37.910Z,64.33
2023-02-14T20:44:08.115Z,64.66
2023-02-14T20:46:35.722Z,64.81
2023-02-14T20:49:05.544Z,64.58
2023-02-14T20:51:33.339Z,64.12
2023-02-14T20:54:03.097Z,64.39
2023-02-14T20:56:30.306Z,65.08
2023-02-14T20:58:57.146Z,64.63
2023-02-14T21:01:25.155Z,64.21
2023-02-14T21:03:53.776Z,64.39
2023-02-14T21:06:23.065Z,64.39
2023-02-14T21:08:50.461Z,63.76
2023-02-14T21:11:19.188Z,63.85
2023-02-14T21:13:46.781Z,63.59
2023-02-14T21:16:16.387Z,64.29
2023-02-14T21:18:47.968Z,63.70
2023-02-14T21:21:26.077Z,63.70
2023-02-14T21:23:53.435Z,63.23
2023-02-14T21:26:21.487Z,64.33
2023-02-14T21:28:48.531Z,64.41
2023-02-14T21:31:18.140Z,63.88
2023-02-14T21:33:45.077Z,64.04
2023-02-14T21:36:14.089Z,63.80
2023-02-14T21:38:41.769Z,63.96
2023-02-14T21:41:11.414Z,65.12
2023-02-14T21:43:41.045Z,65.41
2023-02-14T21:46:10.786Z,65.23
2023-02-14T21:48:56.794Z,64.99
2023-02-14T21:51:23.856Z,66.11
2023-02-14T21:53:51.618Z,66.08
2023-02-14T21:56:22.811Z,65.51
2023-02-14T21:58:52.187Z,65.85
2023-02-14T22:01:22.550Z,66.19
2023-02-14T22:03:50.038Z,65.39
2023-02-14T22:06:17.374Z,65.16
2023-02-14T22:08:44.744Z,65.57
2023-02-14T22:11:15.006Z,65.92
2023-02-14T22:13:42.914Z,65.12
2023-02-14T22:16:15.829Z,64.42
2023-02-14T22:18:42.894Z,66.06
2023-02-14T22:21:14.405Z,65.75
2023-02-14T22:23:41.702Z,65.13
2023-02-14T22:26:14.321Z,64.99
2023-02-14T22:28:42.672Z,65.52
2023-02-14T22:31:10.189Z,65.69
2023-02-14T22:33:38.012Z,65.42
2023-02-14T22:36:06.319Z,64.85
2023-02-14T22:38:34.562Z,66.13
2023-02-14T22:41:12.675Z,66.54
2023-02-14T22:43:41.092Z,65.89
2023-02-14T22:46:11.458Z,65.86
2023-02-14T22:48:39.369Z,66.42
2023-02-14T22:51:27.851Z,66.69
2023-02-14T22:54:06.137Z,66.61
2023-02-14T22:56:35.703Z,66.75
2023-02-14T22:59:06.344Z,67.25
2023-02-14T23:01:35.499Z,67.16
2023-02-14T23:04:03.804Z,66.38
2023-02-14T23:06:33.351Z,66.78
2023-02-14T23:09:00.866Z,67.26
2023-02-14T23:11:30.624Z,66.51
2023-02-14T23:14:16.824Z,65.58
2023-02-14T23:17:02.912Z,65.92
2023-02-14T23:19:51.263Z,66.12
2023-02-14T23:22:22.553Z,65.17
2023-02-14T23:24:54.458Z,64.54
2023-02-14T23:27:36.883Z,65.27
2023-02-14T23:30:05.812Z,64.79
2023-02-14T23:32:32.715Z,64.36
2023-02-14T23:34:59.543Z,64.29
2023-02-14T23:37:27.311Z,64.15
2023-02-14T23:39:54.267Z,64.39
2023-02-14T23:42:21.113Z,63.45
2023-02-14T23:44:49.369Z,64.15
2023-02-14T23:47:16.623Z,64.57
2023-02-14T23:49:43.863Z,64.48
2023-02-14T23:52:12.931Z,64.56
2023-02-14T23:54:40.440Z,65.22
2023-02-14T23:57:08.238Z,64.95
2023-02-14T23:59:35.271Z,64.15
